Time;durP1;ratioP1;P1;durP2;ratioP2;P2;SDS_P1;SDS_P2;PMS_P1;PMS_P2;Temp;Humidity;BMP_temperature;BMP_pressure;BME280_temperature;BME280_humidity;BME280_pressure;Samples;Min_cycle;Max_cycle;Signal;HPM_P1;HPM_P2
2022/09/21 00:00:42;;;;;;;4.78;2.28;;;;;;;;;;5323089;28;20115;-66
2022/09/21 00:03:13;;;;;;;5.10;2.08;;;;;;;;;;5323553;28;20055;-66
2022/09/21 00:05:45;;;;;;;6.75;2.28;;;;;;;;;;5322124;28;20604;-66
2022/09/21 00:08:16;;;;;;;8.27;2.10;;;;;;;;;;5323458;28;20114;-67
2022/09/21 00:10:50;;;;;;;3.88;2.10;;;;;;;;;;5322226;28;20015;-67
2022/09/21 00:13:21;;;;;;;7.00;2.45;;;;;;;;;;5323316;28;20031;-67
2022/09/21 00:15:55;;;;;;;7.68;2.20;;;;;;;;;;5322774;28;20534;-67
2022/09/21 00:18:27;;;;;;;6.38;2.28;;;;;;;;;;5321687;28;20055;-67
2022/09/21 00:20:58;;;;;;;3.55;1.80;;;;;;;;;;5322562;28;20055;-67
2022/09/21 00:23:29;;;;;;;5.47;1.92;;;;;;;;;;5322465;28;20090;-67
2022/09/21 00:26:04;;;;;;;5.45;2.70;;;;;;;;;;5322411;28;20022;-67
2022/09/21 00:28:35;;;;;;;4.47;2.22;;;;;;;;;;5322575;28;20471;-67
2022/09/21 00:31:12;;;;;;;4.63;2.08;;;;;;;;;;5323222;28;20030;-67
2022/09/21 00:33:43;;;;;;;4.10;1.67;;;;;;;;;;5322316;28;20156;-66
2022/09/21 00:36:18;;;;;;;7.97;1.60;;;;;;;;;;5323456;28;20153;-66
2022/09/21 00:38:53;;;;;;;4.50;1.85;;;;;;;;;;5322497;28;20043;-66
2022/09/21 00:41:25;;;;;;;5.60;2.20;;;;;;;;;;5322365;28;20023;-66
2022/09/21 00:44:15;;;;;;;5.82;1.75;;;;;;;;;;5323135;28;20351;-67
2022/09/21 00:46:48;;;;;;;5.85;1.80;;;;;;;;;;5321589;28;20020;-67
2022/09/21 00:49:20;;;;;;;6.28;2.33;;;;;;;;;;5322761;28;20424;-67
2022/09/21 00:51:52;;;;;;;6.55;2.40;;;;;;;;;;5322151;28;20455;-66
2022/09/21 00:54:32;;;;;;;4.82;2.30;;;;;;;;;;5322047;28;20011;-67
2022/09/21 00:57:04;;;;;;;4.68;1.65;;;;;;;;;;5322815;28;20115;-67
2022/09/21 00:59:37;;;;;;;6.95;2.35;;;;;;;;;;5322063;28;20115;-67
2022/09/21 01:02:08;;;;;;;4.13;2.17;;;;;;;;;;5321955;28;20125;-66
2022/09/21 01:04:39;;;;;;;6.20;1.80;;;;;;;;;;5322721;28;20129;-66
2022/09/21 01:07:14;;;;;;;3.47;1.70;;;;;;;;;;5322170;28;20028;-66
2022/09/21 01:09:48;;;;;;;6.85;2.30;;;;;;;;;;5322454;28;20050;-67
2022/09/21 01:12:22;;;;;;;4.57;2.10;;;;;;;;;;5322891;28;20024;-66
2022/09/21 01:14:53;;;;;;;5.40;2.20;;;;;;;;;;5321419;28;20092;-66
2022/09/21 01:17:24;;;;;;;6.97;2.35;;;;;;;;;;5322749;28;20098;-66
2022/09/21 01:19:55;;;;;;;6.38;2.90;;;;;;;;;;5322234;28;20059;-66
2022/09/21 01:22:45;;;;;;;4.38;2.72;;;;;;;;;;5321076;28;20046;-65
2022/09/21 01:25:48;;;;;;;5.50;2.45;;;;;;;;;;5322657;28;20042;-66
2022/09/21 01:28:38;;;;;;;5.18;2.10;;;;;;;;;;5297706;28;20032;-67
2022/09/21 01:31:16;;;;;;;9.52;2.40;;;;;;;;;;5323986;28;20473;-67
2022/09/21 01:33:51;;;;;;;6.18;2.00;;;;;;;;;;5326033;28;20031;-67
2022/09/21 01:36:25;;;;;;;4.95;2.50;;;;;;;;;;5325735;28;20026;-66
2022/09/21 01:39:02;;;;;;;7.68;2.15;;;;;;;;;;5326763;28;20035;-66
2022/09/21 01:41:34;;;;;;;5.03;1.95;;;;;;;;;;5326616;27;20107;-66
2022/09/21 01:44:07;;;;;;;4.07;2.35;;;;;;;;;;5326909;28;20031;-66
2022/09/21 01:46:39;;;;;;;5.50;2.22;;;;;;;;;;5326573;28;20106;-66
2022/09/21 01:49:14;;;;;;;6.55;2.75;;;;;;;;;;5327050;28;20451;-66
2022/09/21 01:51:54;;;;;;;7.55;2.40;;;;;;;;;;5326478;28;20098;-66
2022/09/21 01:54:32;;;;;;;15.45;2.72;;;;;;;;;;5326983;28;20584;-67
2022/09/21 01:57:06;;;;;;;4.88;2.20;;;;;;;;;;5326477;28;20024;-66
2022/09/21 01:59:45;;;;;;;7.72;2.50;;;;;;;;;;5326412;28;20023;-66
2022/09/21 02:02:19;;;;;;;5.80;1.73;;;;;;;;;;5326932;28;20023;-66
2022/09/21 02:04:50;;;;;;;6.68;2.40;;;;;;;;;;5325721;28;20011;-65
2022/09/21 02:07:23;;;;;;;5.30;2.45;;;;;;;;;;5327055;28;20018;-66
2022/09/21 02:09:55;;;;;;;4.07;2.33;;;;;;;;;;5326508;28;20051;-65
2022/09/21 02:12:26;;;;;;;7.18;2.30;;;;;;;;;;5325469;28;20543;-65
2022/09/21 02:14:58;;;;;;;5.12;1.94;;;;;;;;;;5326637;28;20027;-65
2022/09/21 02:17:46;;;;;;;4.22;2.42;;;;;;;;;;5325550;28;20011;-65
2022/09/21 02:20:32;;;;;;;7.60;1.63;;;;;;;;;;5326704;28;20035;-65
2022/09/21 02:23:18;;;;;;;4.25;2.05;;;;;;;;;;5326477;28;20028;-65
2022/09/21 02:26:01;;;;;;;7.90;2.33;;;;;;;;;;5325450;28;20119;-65
2022/09/21 02:28:42;;;;;;;4.93;1.95;;;;;;;;;;5325957;28;20023;-65
2022/09/21 02:31:16;;;;;;;7.30;1.95;;;;;;;;;;5326201;28;20535;-65
2022/09/21 02:34:01;;;;;;;5.28;1.85;;;;;;;;;;5324915;28;20020;-65
2022/09/21 02:36:34;;;;;;;3.40;1.80;;;;;;;;;;5326110;28;20375;-65
2022/09/21 02:39:09;;;;;;;3.08;1.92;;;;;;;;;;5325433;28;20386;-65
2022/09/21 02:41:51;;;;;;;5.97;1.80;;;;;;;;;;5325471;28;20051;-65
2022/09/21 02:44:34;;;;;;;6.00;1.98;;;;;;;;;;5325663;28;20016;-65
2022/09/21 02:47:26;;;;;;;5.00;1.70;;;;;;;;;;5325425;28;20020;-65
2022/09/21 02:50:00;;;;;;;6.28;1.63;;;;;;;;;;5326036;28;20031;-65
2022/09/21 02:52:32;;;;;;;4.40;1.63;;;;;;;;;;5324864;28;20016;-65
2022/09/21 02:55:04;;;;;;;4.40;2.30;;;;;;;;;;5325739;28;20058;-66
2022/09/21 02:57:36;;;;;;;3.22;1.75;;;;;;;;;;5325499;28;20458;-65
2022/09/21 03:00:08;;;;;;;5.78;2.00;;;;;;;;;;5325032;28;20054;-65
2022/09/21 03:02:40;;;;;;;4.60;2.00;;;;;;;;;;5325101;28;20023;-65
2022/09/21 03:05:12;;;;;;;5.93;2.13;;;;;;;;;;5326031;28;20527;-65
2022/09/21 03:07:45;;;;;;;4.07;2.35;;;;;;;;;;5324253;28;20107;-65
2022/09/21 03:10:17;;;;;;;4.90;1.40;;;;;;;;;;5325756;28;20019;-65
2022/09/21 03:12:48;;;;;;;7.45;1.83;;;;;;;;;;5324929;28;20031;-65
2022/09/21 03:15:20;;;;;;;4.40;1.95;;;;;;;;;;5324659;28;20454;-65
2022/09/21 03:17:51;;;;;;;3.70;1.60;;;;;;;;;;5324979;28;20355;-65
2022/09/21 03:20:24;;;;;;;3.92;1.50;;;;;;;;;;5325287;28;20035;-65
2022/09/21 03:22:55;;;;;;;4.13;1.75;;;;;;;;;;5324416;28;20023;-67
2022/09/21 03:25:26;;;;;;;2.88;1.23;;;;;;;;;;5324918;28;20012;-67
2022/09/21 03:27:58;;;;;;;5.45;1.50;;;;;;;;;;5324516;28;20261;-68
2022/09/21 03:30:30;;;;;;;3.92;1.15;;;;;;;;;;5324812;28;20030;-67
2022/09/21 03:33:03;;;;;;;3.28;1.50;;;;;;;;;;5325354;28;20511;-65
2022/09/21 03:35:35;;;;;;;7.70;1.45;;;;;;;;;;5323803;28;20016;-65
2022/09/21 03:38:07;;;;;;;3.30;1.74;;;;;;;;;;5325072;28;20020;-65
2022/09/21 03:40:38;;;;;;;3.33;1.58;;;;;;;;;;5324310;28;20107;-65
2022/09/21 03:43:09;;;;;;;7.68;1.38;;;;;;;;;;5324001;28;20027;-65
2022/09/21 03:45:41;;;;;;;6.93;1.83;;;;;;;;;;5324373;28;20468;-65
2022/09/21 03:48:14;;;;;;;5.10;1.42;;;;;;;;;;5324805;28;20040;-65
2022/09/21 03:50:45;;;;;;;9.38;1.77;;;;;;;;;;5323466;28;20473;-65
2022/09/21 03:53:16;;;;;;;5.82;1.60;;;;;;;;;;5324582;28;20031;-65
2022/09/21 03:55:48;;;;;;;6.90;1.55;;;;;;;;;;5324243;28;20175;-65
2022/09/21 03:58:20;;;;;;;7.60;1.85;;;;;;;;;;5324077;28;20027;-65
2022/09/21 04:00:53;;;;;;;8.52;2.00;;;;;;;;;;5324092;28;20022;-65
2022/09/21 04:03:24;;;;;;;6.03;2.10;;;;;;;;;;5323365;28;20093;-65
2022/09/21 04:05:55;;;;;;;7.15;1.70;;;;;;;;;;5324414;28;20145;-65
2022/09/21 04:08:26;;;;;;;5.65;1.20;;;;;;;;;;5323950;28;20023;-65
2022/09/21 04:10:58;;;;;;;3.78;1.27;;;;;;;;;;5323685;28;20092;-66
2022/09/21 04:13:30;;;;;;;6.13;1.30;;;;;;;;;;5323815;28;20657;-65
2022/09/21 04:16:01;;;;;;;4.93;1.25;;;;;;;;;;5323162;28;20679;-65
2022/09/21 04:18:32;;;;;;;6.40;1.45;;;;;;;;;;5323043;28;20031;-65
2022/09/21 04:21:04;;;;;;;3.85;1.65;;;;;;;;;;5324338;28;20108;-65
2022/09/21 04:23:36;;;;;;;4.25;1.52;;;;;;;;;;5323788;28;20098;-65
2022/09/21 04:26:16;;;;;;;4.72;1.73;;;;;;;;;;5323307;28;20140;-65
2022/09/21 04:28:47;;;;;;;7.40;1.98;;;;;;;;;;5323818;28;20029;-65
2022/09/21 04:31:19;;;;;;;2.40;1.25;;;;;;;;;;5323478;28;20027;-65
2022/09/21 04:33:50;;;;;;;5.15;1.40;;;;;;;;;;5323438;28;20020;-65
2022/09/21 04:36:23;;;;;;;5.35;2.17;;;;;;;;;;5323924;28;20024;-65
2022/09/21 04:38:54;;;;;;;5.18;2.53;;;;;;;;;;5322683;28;20103;-65
2022/09/21 04:41:26;;;;;;;7.18;2.22;;;;;;;;;;5323301;28;20552;-66
2022/09/21 04:43:57;;;;;;;4.38;2.80;;;;;;;;;;5323771;28;20468;-65
2022/09/21 04:46:28;;;;;;;11.82;2.85;;;;;;;;;;5322639;28;20479;-65
2022/09/21 04:48:59;;;;;;;5.10;2.28;;;;;;;;;;5323517;28;20044;-65
2022/09/21 04:51:30;;;;;;;6.63;2.47;;;;;;;;;;5323143;28;20028;-65
2022/09/21 04:54:02;;;;;;;6.07;2.22;;;;;;;;;;5323137;28;20026;-65
2022/09/21 04:56:34;;;;;;;6.38;2.17;;;;;;;;;;5323191;28;20038;-65
2022/09/21 04:59:05;;;;;;;5.45;2.50;;;;;;;;;;5323696;28;20020;-65
2022/09/21 05:01:36;;;;;;;5.90;2.85;;;;;;;;;;5322115;28;20120;-65
2022/09/21 05:04:07;;;;;;;9.10;2.78;;;;;;;;;;5323871;28;20023;-65
2022/09/21 05:06:38;;;;;;;5.10;2.45;;;;;;;;;;5327232;28;20273;-65
2022/09/21 05:11:59;;;;;;;5.00;2.03;;;;;;;;;;5330896;28;20032;-65
2022/09/21 05:14:30;;;;;;;7.43;2.38;;;;;;;;;;5329092;27;20060;-65
2022/09/21 05:17:01;;;;;;;7.78;3.10;;;;;;;;;;5330813;28;20024;-65
2022/09/21 05:19:33;;;;;;;6.50;2.05;;;;;;;;;;5329936;28;20031;-65
2022/09/21 05:22:04;;;;;;;5.68;1.67;;;;;;;;;;5329707;28;20027;-66
2022/09/21 05:24:35;;;;;;;3.20;2.15;;;;;;;;;;5329782;28;20099;-67
2022/09/21 05:27:06;;;;;;;4.13;2.10;;;;;;;;;;5330858;27;20355;-65
2022/09/21 05:29:38;;;;;;;5.22;1.75;;;;;;;;;;5329008;28;20162;-66
2022/09/21 05:32:09;;;;;;;5.72;2.00;;;;;;;;;;5330201;28;20015;-65
2022/09/21 05:34:48;;;;;;;6.55;2.25;;;;;;;;;;5328984;28;20023;-65
2022/09/21 05:37:39;;;;;;;8.35;2.47;;;;;;;;;;5330585;28;20042;-65
2022/09/21 05:40:11;;;;;;;4.38;1.70;;;;;;;;;;5330248;28;20458;-65
2022/09/21 05:42:42;;;;;;;6.28;2.20;;;;;;;;;;5329003;28;20092;-65
2022/09/21 05:45:14;;;;;;;5.00;2.05;;;;;;;;;;5330149;27;20016;-65
2022/09/21 05:47:58;;;;;;;10.70;2.38;;;;;;;;;;5329390;28;20048;-65
2022/09/21 05:50:34;;;;;;;6.68;2.30;;;;;;;;;;5328872;28;20012;-65
2022/09/21 05:53:10;;;;;;;6.78;2.13;;;;;;;;;;5330244;28;20400;-65
2022/09/21 05:55:54;;;;;;;7.60;2.47;;;;;;;;;;5328683;28;20434;-65
2022/09/21 05:58:30;;;;;;;7.75;1.80;;;;;;;;;;5329399;28;20039;-65
2022/09/21 06:01:21;;;;;;;6.28;3.75;;;;;;;;;;5330380;27;20126;-65
2022/09/21 06:03:52;;;;;;;7.38;3.47;;;;;;;;;;5328933;27;20102;-65
2022/09/21 06:06:24;;;;;;;7.10;3.67;;;;;;;;;;5329613;28;20094;-65
2022/09/21 06:08:55;;;;;;;6.47;3.00;;;;;;;;;;5329915;28;20090;-65
2022/09/21 06:11:26;;;;;;;6.80;3.60;;;;;;;;;;5328725;28;20012;-65
2022/09/21 06:13:59;;;;;;;5.50;2.58;;;;;;;;;;5329983;28;20027;-66
2022/09/21 06:16:37;;;;;;;7.32;2.53;;;;;;;;;;5328169;28;20106;-65
2022/09/21 06:19:12;;;;;;;8.38;3.60;;;;;;;;;;5326018;28;20024;-66
2022/09/21 06:21:43;;;;;;;8.25;4.03;;;;;;;;;;5326157;28;20437;-66
2022/09/21 06:24:14;;;;;;;9.50;4.32;;;;;;;;;;5325768;28;20162;-66
2022/09/21 06:26:46;;;;;;;7.10;4.72;;;;;;;;;;5325856;28;20019;-66
2022/09/21 06:29:22;;;;;;;10.80;5.07;;;;;;;;;;5326437;28;20019;-66
2022/09/21 06:31:53;;;;;;;8.00;4.55;;;;;;;;;;5325184;28;20471;-66
2022/09/21 06:34:24;;;;;;;15.93;5.70;;;;;;;;;;5325988;28;20154;-67
2022/09/21 06:36:56;;;;;;;10.77;5.30;;;;;;;;;;5325960;28;20399;-66
2022/09/21 06:39:27;;;;;;;11.70;6.63;;;;;;;;;;5324455;28;20028;-66
2022/09/21 06:41:58;;;;;;;9.70;6.28;;;;;;;;;;5326158;28;20024;-66
2022/09/21 06:44:29;;;;;;;10.77;5.28;;;;;;;;;;5325445;28;20058;-67
2022/09/21 06:47:01;;;;;;;7.10;5.05;;;;;;;;;;5325316;28;20015;-67
2022/09/21 06:49:32;;;;;;;11.05;4.90;;;;;;;;;;5325226;28;20390;-67
2022/09/21 06:52:03;;;;;;;6.40;4.00;;;;;;;;;;5325060;28;20035;-66
2022/09/21 06:54:35;;;;;;;6.78;3.30;;;;;;;;;;5325534;28;20066;-67
2022/09/21 06:57:06;;;;;;;10.38;3.10;;;;;;;;;;5325954;28;20102;-66
2022/09/21 06:59:38;;;;;;;7.85;3.28;;;;;;;;;;5324409;28;20163;-66
2022/09/21 07:02:09;;;;;;;5.97;3.22;;;;;;;;;;5325142;28;20050;-67
2022/09/21 07:04:40;;;;;;;8.65;2.78;;;;;;;;;;5325072;28;20019;-66
2022/09/21 07:07:11;;;;;;;5.00;2.28;;;;;;;;;;5324846;28;20042;-66
2022/09/21 07:09:43;;;;;;;8.38;2.60;;;;;;;;;;5325382;28;20257;-65
2022/09/21 07:12:15;;;;;;;7.07;2.38;;;;;;;;;;5325600;28;20149;-65
2022/09/21 07:14:46;;;;;;;6.30;2.58;;;;;;;;;;5324174;28;20023;-66
2022/09/21 07:17:18;;;;;;;6.43;2.33;;;;;;;;;;5325366;28;20015;-66
2022/09/21 07:19:49;;;;;;;4.38;2.42;;;;;;;;;;5323935;28;20032;-66
2022/09/21 07:22:20;;;;;;;6.07;2.25;;;;;;;;;;5325306;28;20024;-65
2022/09/21 07:24:51;;;;;;;6.13;2.70;;;;;;;;;;5324646;28;20398;-66
2022/09/21 07:27:24;;;;;;;6.53;2.60;;;;;;;;;;5324423;28;20098;-66
2022/09/21 07:29:55;;;;;;;5.43;2.20;;;;;;;;;;5324800;28;20406;-66
2022/09/21 07:32:26;;;;;;;5.83;2.43;;;;;;;;;;5324627;28;20098;-67
2022/09/21 07:34:57;;;;;;;8.60;2.50;;;;;;;;;;5324240;28;20285;-66
2022/09/21 07:37:30;;;;;;;9.25;3.13;;;;;;;;;;5324328;28;20051;-66
2022/09/21 07:40:04;;;;;;;6.55;2.63;;;;;;;;;;5324776;28;20537;-66
2022/09/21 07:42:35;;;;;;;6.88;2.90;;;;;;;;;;5323427;28;20071;-66
2022/09/21 07:45:07;;;;;;;7.07;2.80;;;;;;;;;;5324934;28;20060;-66
2022/09/21 07:47:38;;;;;;;7.57;2.95;;;;;;;;;;5324007;28;20292;-65
2022/09/21 07:50:09;;;;;;;5.97;2.60;;;;;;;;;;5323902;28;20115;-66
2022/09/21 07:52:41;;;;;;;6.05;2.13;;;;;;;;;;5324100;28;20030;-66
2022/09/21 07:55:12;;;;;;;7.82;2.80;;;;;;;;;;5323993;28;20015;-66
2022/09/21 08:00:35;;;;;;;5.25;1.60;;;;;;;;;;5324030;28;20060;-66
2022/09/21 08:03:06;;;;;;;3.65;1.35;;;;;;;;;;5323348;28;20370;-66
2022/09/21 08:05:37;;;;;;;6.18;1.50;;;;;;;;;;5324020;28;20024;-66
2022/09/21 08:08:08;;;;;;;5.07;1.60;;;;;;;;;;5323828;28;20031;-65
2022/09/21 08:10:40;;;;;;;4.90;1.35;;;;;;;;;;5322657;28;20284;-66
2022/09/21 08:13:11;;;;;;;3.83;0.70;;;;;;;;;;5323972;28;20463;-66
2022/09/21 08:15:42;;;;;;;4.70;1.00;;;;;;;;;;5323865;28;20693;-66
2022/09/21 08:18:13;;;;;;;3.85;1.15;;;;;;;;;;5323396;28;20257;-66
2022/09/21 08:20:51;;;;;;;3.85;1.20;;;;;;;;;;5323474;28;20439;-66
2022/09/21 08:23:23;;;;;;;6.57;0.77;;;;;;;;;;5323212;28;20015;-66
2022/09/21 08:26:05;;;;;;;5.10;0.90;;;;;;;;;;5323711;28;20098;-65
2022/09/21 08:28:37;;;;;;;4.95;0.98;;;;;;;;;;5323516;28;20089;-65
2022/09/21 08:31:09;;;;;;;5.90;0.75;;;;;;;;;;5322597;28;20023;-68
2022/09/21 08:33:40;;;;;;;3.67;0.70;;;;;;;;;;5323410;28;20042;-65
2022/09/21 08:36:11;;;;;;;4.97;0.88;;;;;;;;;;5323860;28;20011;-67
2022/09/21 08:38:42;;;;;;;5.82;0.60;;;;;;;;;;5322855;28;20035;-65
2022/09/21 08:41:19;;;;;;;6.75;0.80;;;;;;;;;;5323222;28;20145;-67
2022/09/21 08:44:04;;;;;;;5.57;0.65;;;;;;;;;;5323348;28;20107;-68
2022/09/21 08:46:35;;;;;;;7.57;1.00;;;;;;;;;;5322608;28;20023;-66
2022/09/21 08:49:12;;;;;;;5.65;0.70;;;;;;;;;;5323747;28;20044;-65
2022/09/21 08:51:55;;;;;;;5.97;0.68;;;;;;;;;;5322469;28;20020;-65
2022/09/21 08:54:29;;;;;;;4.85;1.10;;;;;;;;;;5323210;28;20374;-64
2022/09/21 08:57:00;;;;;;;5.22;0.63;;;;;;;;;;5323891;28;20020;-65
2022/09/21 08:59:32;;;;;;;6.60;1.33;;;;;;;;;;5322605;28;20464;-65
2022/09/21 09:02:11;;;;;;;5.05;0.70;;;;;;;;;;5323531;28;20275;-65
2022/09/21 09:04:52;;;;;;;3.72;0.60;;;;;;;;;;5322928;28;20330;-65
2022/09/21 09:07:23;;;;;;;5.32;0.50;;;;;;;;;;5322373;28;20042;-66
2022/09/21 09:10:05;;;;;;;5.35;0.60;;;;;;;;;;5323373;28;20016;-65
2022/09/21 09:12:48;;;;;;;6.75;0.70;;;;;;;;;;5322608;28;20432;-66
2022/09/21 09:15:24;;;;;;;3.72;0.50;;;;;;;;;;5323608;28;20016;-66
2022/09/21 09:18:12;;;;;;;5.38;0.60;;;;;;;;;;5322980;28;20016;-66
2022/09/21 09:20:48;;;;;;;3.58;0.50;;;;;;;;;;5321930;28;20042;-66
2022/09/21 09:23:22;;;;;;;3.55;0.30;;;;;;;;;;5323402;28;20117;-67
2022/09/21 09:25:58;;;;;;;3.13;0.40;;;;;;;;;;5322747;28;20482;-66
2022/09/21 09:28:35;;;;;;;2.92;0.32;;;;;;;;;;5321904;28;20024;-66
2022/09/21 09:31:18;;;;;;;4.50;0.65;;;;;;;;;;5323585;28;20095;-66
2022/09/21 09:33:55;;;;;;;4.75;0.30;;;;;;;;;;5321957;28;20370;-67
2022/09/21 09:36:28;;;;;;;3.60;0.30;;;;;;;;;;5322626;28;20023;-67
2022/09/21 09:39:00;;;;;;;7.22;0.50;;;;;;;;;;5323364;28;20462;-65
2022/09/21 09:41:47;;;;;;;4.85;0.45;;;;;;;;;;5321659;28;20100;-67
2022/09/21 09:44:37;;;;;;;2.97;0.30;;;;;;;;;;5323284;28;20103;-67
2022/09/21 09:47:21;;;;;;;3.75;0.32;;;;;;;;;;5323097;28;20103;-67
2022/09/21 09:49:59;;;;;;;4.43;0.40;;;;;;;;;;5321885;28;20027;-67
2022/09/21 09:52:31;;;;;;;2.60;0.30;;;;;;;;;;5324600;28;20026;-66
2022/09/21 09:55:16;;;;;;;2.08;0.20;;;;;;;;;;5326565;28;20016;-67
2022/09/21 09:57:48;;;;;;;2.90;0.30;;;;;;;;;;5326867;28;20020;-66
2022/09/21 10:00:20;;;;;;;1.98;0.20;;;;;;;;;;5327177;28;20023;-67
2022/09/21 10:02:52;;;;;;;7.75;0.95;;;;;;;;;;5325573;28;20027;-67
2022/09/21 10:05:23;;;;;;;3.50;0.40;;;;;;;;;;5326686;28;20020;-67
2022/09/21 10:07:55;;;;;;;1.92;0.30;;;;;;;;;;5326490;28;20016;-66
2022/09/21 10:10:31;;;;;;;3.13;0.25;;;;;;;;;;5325608;28;20024;-67
2022/09/21 10:13:13;;;;;;;3.78;0.40;;;;;;;;;;5326781;28;20114;-67
2022/09/21 10:15:55;;;;;;;3.47;0.30;;;;;;;;;;5325551;28;20020;-67
2022/09/21 10:18:33;;;;;;;3.10;0.32;;;;;;;;;;5325940;28;20371;-67
2022/09/21 10:21:16;;;;;;;2.63;0.30;;;;;;;;;;5326820;28;20378;-68
2022/09/21 10:23:49;;;;;;;6.43;0.50;;;;;;;;;;5325318;28;20031;-67
2022/09/21 10:26:20;;;;;;;4.72;0.30;;;;;;;;;;5326454;28;20462;-67
2022/09/21 10:28:56;;;;;;;1.98;0.20;;;;;;;;;;5325986;28;20034;-67
2022/09/21 10:31:28;;;;;;;4.05;0.20;;;;;;;;;;5325385;27;20051;-67
2022/09/21 10:34:03;;;;;;;2.70;0.20;;;;;;;;;;5326526;28;20019;-67
2022/09/21 10:36:36;;;;;;;2.78;0.28;;;;;;;;;;5325830;28;20027;-67
2022/09/21 10:39:18;;;;;;;4.07;0.20;;;;;;;;;;5325467;28;20020;-67
2022/09/21 10:42:01;;;;;;;3.67;0.30;;;;;;;;;;5326055;28;20466;-67
2022/09/21 10:44:58;;;;;;;2.35;0.30;;;;;;;;;;5324821;28;20031;-67
2022/09/21 10:47:30;;;;;;;3.95;0.60;;;;;;;;;;5323091;28;20110;-67
2022/09/21 10:50:04;;;;;;;3.22;0.40;;;;;;;;;;5326366;28;20094;-67
2022/09/21 10:52:40;;;;;;;2.53;0.50;;;;;;;;;;5324506;27;20107;-67
2022/09/21 10:55:19;;;;;;;4.20;0.50;;;;;;;;;;5327062;28;20055;-67
2022/09/21 10:57:51;;;;;;;2.97;0.32;;;;;;;;;;5324912;28;20023;-67
2022/09/21 11:00:22;;;;;;;4.28;0.40;;;;;;;;;;5326069;28;20085;-67
2022/09/21 11:02:59;;;;;;;1.92;0.30;;;;;;;;;;5325252;28;20016;-67
2022/09/21 11:05:37;;;;;;;3.47;0.63;;;;;;;;;;5324326;28;20016;-67
2022/09/21 11:08:16;;;;;;;5.22;0.30;;;;;;;;;;5325627;28;20028;-67
2022/09/21 11:11:07;;;;;;;4.55;0.20;;;;;;;;;;5325317;28;20090;-67
2022/09/21 11:13:45;;;;;;;4.25;0.50;;;;;;;;;;5324186;28;20067;-67
2022/09/21 11:16:25;;;;;;;3.87;0.40;;;;;;;;;;5325626;28;20031;-66
2022/09/21 11:18:56;;;;;;;2.22;0.30;;;;;;;;;;5324944;28;20019;-67
2022/09/21 11:21:45;;;;;;;1.92;0.20;;;;;;;;;;5324932;28;20034;-66
2022/09/21 11:24:20;;;;;;;2.65;0.20;;;;;;;;;;5325181;28;20050;-66
2022/09/21 11:27:02;;;;;;;3.70;0.30;;;;;;;;;;5323838;28;20031;-67
2022/09/21 11:29:44;;;;;;;2.97;0.30;;;;;;;;;;5324498;28;20102;-66
2022/09/21 11:32:15;;;;;;;4.85;0.57;;;;;;;;;;5325145;28;20047;-67
2022/09/21 11:34:46;;;;;;;2.60;0.32;;;;;;;;;;5323703;28;20047;-67
2022/09/21 11:37:26;;;;;;;2.85;0.22;;;;;;;;;;5324932;28;20506;-67
2022/09/21 11:40:08;;;;;;;3.25;0.30;;;;;;;;;;5324737;28;20023;-67
2022/09/21 11:42:45;;;;;;;1.98;0.28;;;;;;;;;;5324511;28;20016;-66
2022/09/21 11:45:22;;;;;;;3.47;0.20;;;;;;;;;;5324967;28;20443;-67
2022/09/21 11:48:07;;;;;;;3.35;0.30;;;;;;;;;;5323290;28;20043;-67
2022/09/21 11:50:57;;;;;;;3.08;0.30;;;;;;;;;;5324384;28;20356;-67
2022/09/21 11:53:40;;;;;;;2.50;0.50;;;;;;;;;;5323964;27;20106;-67
2022/09/21 11:56:16;;;;;;;3.03;0.30;;;;;;;;;;5324056;28;20096;-67
2022/09/21 11:59:05;;;;;;;5.47;0.28;;;;;;;;;;5324329;28;20020;-67
2022/09/21 12:01:40;;;;;;;3.90;0.20;;;;;;;;;;5323493;28;20038;-67
2022/09/21 12:04:11;;;;;;;4.85;0.52;;;;;;;;;;5324554;28;20068;-67
2022/09/21 12:06:45;;;;;;;3.70;0.20;;;;;;;;;;5323831;28;20363;-67
2022/09/21 12:09:29;;;;;;;3.45;0.20;;;;;;;;;;5323656;28;20111;-67
2022/09/21 12:12:07;;;;;;;3.47;0.20;;;;;;;;;;5324408;28;20051;-68
2022/09/21 12:14:44;;;;;;;4.05;0.40;;;;;;;;;;5323205;28;20080;-67
2022/09/21 12:17:30;;;;;;;4.05;0.28;;;;;;;;;;5323149;28;20110;-67
2022/09/21 12:20:16;;;;;;;2.10;0.20;;;;;;;;;;5324463;28;20062;-68
2022/09/21 12:22:50;;;;;;;5.50;0.77;;;;;;;;;;5322903;28;20030;-68
2022/09/21 12:25:27;;;;;;;3.03;0.30;;;;;;;;;;5324093;28;20027;-67
2022/09/21 12:28:09;;;;;;;3.08;0.30;;;;;;;;;;5324346;28;20024;-68
2022/09/21 12:30:41;;;;;;;3.58;0.20;;;;;;;;;;5322942;28;20063;-69
2022/09/21 12:33:32;;;;;;;3.45;0.38;;;;;;;;;;5323965;28;20020;-68
2022/09/21 12:36:09;;;;;;;3.20;0.20;;;;;;;;;;5323757;28;20099;-68
2022/09/21 12:38:44;;;;;;;2.28;0.20;;;;;;;;;;5322537;28;20031;-68
2022/09/21 12:41:19;;;;;;;3.70;0.20;;;;;;;;;;5323975;28;20050;-67
2022/09/21 12:44:03;;;;;;;3.10;0.32;;;;;;;;;;5322625;28;20020;-67
2022/09/21 12:46:42;;;;;;;2.75;0.30;;;;;;;;;;5323326;28;20019;-67
2022/09/21 12:49:16;;;;;;;5.95;0.30;;;;;;;;;;5323541;28;20052;-67
2022/09/21 12:51:50;;;;;;;3.92;0.95;;;;;;;;;;5322492;28;20415;-68
2022/09/21 12:54:28;;;;;;;2.40;0.82;;;;;;;;;;5323659;28;20015;-67
2022/09/21 12:57:30;;;;;;;3.53;0.30;;;;;;;;;;5324068;28;20458;-71
2022/09/21 13:00:13;;;;;;;3.25;0.20;;;;;;;;;;5286195;28;20366;-67
2022/09/21 13:02:44;;;;;;;3.28;0.20;;;;;;;;;;5322367;28;20059;-67
2022/09/21 13:05:18;;;;;;;4.45;0.28;;;;;;;;;;5322664;28;20066;-68
2022/09/21 13:07:55;;;;;;;2.53;0.20;;;;;;;;;;5323077;28;20740;-67
2022/09/21 13:10:26;;;;;;;5.28;0.30;;;;;;;;;;5322761;28;20024;-68
2022/09/21 13:13:00;;;;;;;2.90;0.20;;;;;;;;;;5322660;28;20099;-69
2022/09/21 13:15:40;;;;;;;3.80;0.30;;;;;;;;;;5322802;28;20026;-69
2022/09/21 13:18:17;;;;;;;6.00;0.40;;;;;;;;;;5323709;28;20535;-69
2022/09/21 13:20:50;;;;;;;2.22;0.40;;;;;;;;;;5321811;28;20027;-69
2022/09/21 13:23:41;;;;;;;4.20;0.52;;;;;;;;;;5323480;28;20016;-68
2022/09/21 13:26:12;;;;;;;3.90;0.20;;;;;;;;;;5322931;28;20485;-68
2022/09/21 13:28:52;;;;;;;3.05;0.15;;;;;;;;;;5326920;28;20020;-68
2022/09/21 13:31:30;;;;;;;3.75;0.30;;;;;;;;;;5327266;28;20441;-69
2022/09/21 13:34:20;;;;;;;2.35;0.20;;;;;;;;;;5326904;28;20019;-68
2022/09/21 13:37:13;;;;;;;4.53;0.60;;;;;;;;;;5327219;27;20068;-67
2022/09/21 13:39:44;;;;;;;1.90;0.20;;;;;;;;;;5325984;28;20031;-68
2022/09/21 13:42:31;;;;;;;4.55;0.30;;;;;;;;;;5327425;28;20088;-68
2022/09/21 13:45:28;;;;;;;2.45;0.20;;;;;;;;;;5326075;28;20019;-67
2022/09/21 13:48:11;;;;;;;5.80;1.55;;;;;;;;;;5309836;28;20485;-68
2022/09/21 13:50:43;;;;;;;4.57;0.30;;;;;;;;;;5326577;28;20019;-69
2022/09/21 13:53:19;;;;;;;4.70;0.30;;;;;;;;;;5326894;28;20007;-68
2022/09/21 13:55:52;;;;;;;3.58;0.52;;;;;;;;;;5325991;28;20051;-68
2022/09/21 13:58:25;;;;;;;2.72;0.30;;;;;;;;;;5326874;28;20022;-69
2022/09/21 14:00:58;;;;;;;4.80;0.30;;;;;;;;;;5326260;28;20027;-67
2022/09/21 14:03:35;;;;;;;1.70;0.22;;;;;;;;;;5326367;28;20015;-68
2022/09/21 14:06:09;;;;;;;2.33;0.30;;;;;;;;;;5327115;28;20019;-68
2022/09/21 14:08:56;;;;;;;4.15;0.30;;;;;;;;;;5325706;28;20454;-68
2022/09/21 14:11:30;;;;;;;3.30;0.30;;;;;;;;;;5326214;28;20035;-69
2022/09/21 14:14:01;;;;;;;2.15;0.25;;;;;;;;;;5326656;28;20019;-68
2022/09/21 14:16:33;;;;;;;1.92;0.20;;;;;;;;;;5325503;28;20390;-68
2022/09/21 14:19:16;;;;;;;4.55;0.68;;;;;;;;;;5326659;28;20020;-68
2022/09/21 14:22:02;;;;;;;3.53;0.63;;;;;;;;;;5325642;28;20080;-68
2022/09/21 14:24:43;;;;;;;3.75;0.40;;;;;;;;;;5326173;28;20019;-68
2022/09/21 14:27:33;;;;;;;2.65;0.30;;;;;;;;;;5326801;28;20024;-68
2022/09/21 14:30:30;;;;;;;7.13;0.65;;;;;;;;;;5325748;28;20024;-68
2022/09/21 14:33:06;;;;;;;3.15;0.20;;;;;;;;;;5322729;28;20466;-68
2022/09/21 14:35:40;;;;;;;7.55;0.40;;;;;;;;;;5325914;28;20011;-68
2022/09/21 14:38:31;;;;;;;1.98;0.40;;;;;;;;;;5324646;28;20426;-68
2022/09/21 14:41:06;;;;;;;2.97;0.30;;;;;;;;;;5325349;28;20079;-68
2022/09/21 14:43:38;;;;;;;5.97;0.40;;;;;;;;;;5324866;28;20021;-68
2022/09/21 14:46:34;;;;;;;5.22;0.30;;;;;;;;;;5326130;28;20462;-67
2022/09/21 14:49:08;;;;;;;9.23;0.30;;;;;;;;;;5325577;28;20051;-68
2022/09/21 14:51:54;;;;;;;2.38;0.38;;;;;;;;;;5324651;28;20065;-68
2022/09/21 14:54:39;;;;;;;1.90;0.30;;;;;;;;;;5325338;28;20051;-68
2022/09/21 14:57:23;;;;;;;3.20;0.30;;;;;;;;;;5325162;28;20016;-68
2022/09/21 15:00:04;;;;;;;1.80;0.30;;;;;;;;;;5325385;28;20051;-67
2022/09/21 15:02:36;;;;;;;1.75;0.30;;;;;;;;;;5325169;28;20022;-68
2022/09/21 15:05:07;;;;;;;1.92;0.30;;;;;;;;;;5325204;28;20462;-68
2022/09/21 15:13:39;;;;;;;3.28;0.40;;;;;;;;;;5325163;28;20019;-68
2022/09/21 15:16:36;;;;;;;4.15;0.40;;;;;;;;;;5325551;28;20024;-68
2022/09/21 15:19:11;;;;;;;2.53;0.40;;;;;;;;;;5324716;28;20446;-68
2022/09/21 15:21:44;;;;;;;3.28;0.40;;;;;;;;;;5324723;28;20514;-67
2022/09/21 15:24:15;;;;;;;3.70;0.40;;;;;;;;;;5325515;28;20020;-68
2022/09/21 15:26:48;;;;;;;2.63;0.38;;;;;;;;;;5323466;28;20023;-68
2022/09/21 15:29:24;;;;;;;3.20;0.47;;;;;;;;;;5325627;28;20012;-68
2022/09/21 15:31:55;;;;;;;4.43;0.43;;;;;;;;;;5324783;28;20049;-69
2022/09/21 15:34:27;;;;;;;4.65;0.70;;;;;;;;;;5323844;28;20052;-68
2022/09/21 15:37:06;;;;;;;4.03;0.50;;;;;;;;;;5325063;28;20024;-68
2022/09/21 15:39:37;;;;;;;4.30;0.50;;;;;;;;;;5323785;28;20027;-68
2022/09/21 15:42:08;;;;;;;5.50;0.90;;;;;;;;;;5325150;28;20023;-68
2022/09/21 15:44:40;;;;;;;5.95;1.00;;;;;;;;;;5324313;28;20484;-68